Neenah, WI (54956)

2:44 AM CDT on November 01, 2014 (GMT -0500)
Near Heckrodt Wetland Reserve | Change Station
CLOSE
Current Station
Personal Weather Station
Location: Menasha, WI
Elevation: 755 ft
Nearby Weather Stations

Elev 755 ft 44.21 °N, 88.43 °W | Updated 1 second ago

Overcast
Overcast
31.8 °F
Feels Like 32 °F
N
3.0
Wind Variable Wind from NNW
Gusts 4.0 mph

Today
High -- | Low -- °F
--% Chance of Precip.
Yesterday
High -- | Low -- °F
Precip. -- in
7:30 AM 5:43 PM
Waxing Gibbous, 64% visible
Pressure 30.44 in
Visibility 10.0 miles
Clouds Scattered Clouds 3600 ft
Windchill 32 °F
Dew Point 22 °F
Humidity 67%
Rainfall 0.00 in
Snow Depth Not available.
UV 0 out of 12
Pollen .10 out of 12
Air Quality Not available.
Flu Activity Not available.
METAR KATW 010735Z AUTO 35007KT 10SM SCT036 M01/M07 A3044 RMK AO2

More Conditions Fewer Conditions

Pressure 30.44 in
Visibility 10.0 miles
Clouds Scattered Clouds 3600 ft
Windchill 32 °F
Dew Point 22 °F
Humidity 67%
Rainfall 0.00 in
Snow Depth Not available.
UV 0 out of 12
Pollen .10 out of 12
Air Quality Not available.
Flu Activity Not available.
METAR KATW 010735Z AUTO 35007KT 10SM SCT036 M01/M07 A3044 RMK AO2

More Conditions Fewer Conditions

10-Day Weather Forecast

Almanac

Astronomy

Nov. 01, 2014 Rise Set
Actual Time
Civil Twilight
Nautical Twilight
Astronomical Twilight
Moon
Length of Visible Light
Length of Day
Tomorrow will be .
, % of the Moon is Illuminated

Today's Extremes

State Highs State Lows

Community

WunderPhotos

Upload Photos

1,766,866 photos uploaded!

WunderBlogs® & News

Nearby

Air Quality

  Air Quality AQ Index Pollutant
Not available.

Snow Depth

Station Depth Elevation

Earthquake Activity

City Distance Mag. Time & Date
Minimum magnitude displayed is 2.5.

Coastal Water Temperatures

Place Temperature

Nearby Weather Stations